createdAt,value
2018-10-16T00:00:50.851Z,13.60
2018-10-16T00:04:54.898Z,13.40
2018-10-16T00:08:59.056Z,12.10
2018-10-16T00:13:11.137Z,13.68
2018-10-16T00:17:15.088Z,13.50
2018-10-16T00:21:19.312Z,12.40
2018-10-16T00:25:24.431Z,11.83
2018-10-16T00:29:28.457Z,13.07
2018-10-16T00:33:32.353Z,13.57
2018-10-16T00:37:36.644Z,12.03
2018-10-16T00:41:41.076Z,13.13
2018-10-16T00:45:45.016Z,13.23
2018-10-16T00:49:49.154Z,13.77
2018-10-16T00:53:53.055Z,13.20
2018-10-16T00:57:56.965Z,12.77
2018-10-16T01:02:00.885Z,12.43
2018-10-16T01:06:04.826Z,11.50
2018-10-16T01:10:09.975Z,13.50
2018-10-16T01:14:13.857Z,15.47
2018-10-16T01:18:17.779Z,13.00
2018-10-16T01:22:22.026Z,13.23
2018-10-16T01:26:25.956Z,14.45
2018-10-16T01:30:30.005Z,14.27
2018-10-16T01:34:33.910Z,15.27
2018-10-16T01:38:37.832Z,14.70
2018-10-16T01:42:42.166Z,14.90
2018-10-16T01:46:46.277Z,12.83
2018-10-16T01:50:50.190Z,13.15
2018-10-16T01:54:54.180Z,14.47
2018-10-16T01:58:58.435Z,14.23
2018-10-16T02:03:02.412Z,13.73
2018-10-16T02:07:06.345Z,13.87
2018-10-16T02:11:10.351Z,15.93
2018-10-16T02:15:14.324Z,14.87
2018-10-16T02:19:18.266Z,16.57
2018-10-16T02:23:22.208Z,14.47
2018-10-16T02:27:26.205Z,13.23
2018-10-16T02:31:30.133Z,12.27
2018-10-16T02:35:34.072Z,13.27
2018-10-16T02:39:38.014Z,13.73
2018-10-16T02:43:41.980Z,12.63
2018-10-16T02:52:04.208Z,12.40
2018-10-16T02:56:08.922Z,14.30
2018-10-16T03:00:12.849Z,13.50
2018-10-16T03:04:17.453Z,13.50
2018-10-16T03:08:21.411Z,12.07
2018-10-16T03:12:25.350Z,11.83
2018-10-16T03:16:29.353Z,13.90
2018-10-16T03:20:33.329Z,13.07
2018-10-16T03:24:37.348Z,13.80
2018-10-16T03:28:41.589Z,11.68
2018-10-16T03:32:45.564Z,12.00
2018-10-16T03:36:49.555Z,13.87
2018-10-16T03:40:53.549Z,10.57
2018-10-16T03:44:57.483Z,9.93
2018-10-16T03:49:01.408Z,9.93
2018-10-16T03:53:06.017Z,10.20
2018-10-16T03:57:10.034Z,9.03
2018-10-16T04:01:14.298Z,10.70
2018-10-16T04:05:18.186Z,10.17
2018-10-16T04:09:22.122Z,9.83
2018-10-16T04:13:26.364Z,10.50
2018-10-16T04:17:30.268Z,10.00
2018-10-16T04:21:39.230Z,11.97
2018-10-16T04:25:43.527Z,11.30
2018-10-16T04:29:51.001Z,10.60
2018-10-16T04:33:58.663Z,10.90
2018-10-16T04:38:03.746Z,13.73
2018-10-16T04:42:11.599Z,11.13
2018-10-16T04:46:15.894Z,11.67
2018-10-16T04:50:25.942Z,11.70
2018-10-16T04:54:36.939Z,12.10
2018-10-16T04:58:43.021Z,11.90
2018-10-16T05:02:49.576Z,11.27
2018-10-16T05:06:54.255Z,12.47
2018-10-16T05:10:59.820Z,12.60
2018-10-16T05:15:06.167Z,11.63
2018-10-16T05:19:10.226Z,14.10
2018-10-16T05:23:14.140Z,11.00
2018-10-16T05:27:22.147Z,15.67
2018-10-16T05:31:26.324Z,13.73
2018-10-16T05:35:30.094Z,14.15
2018-10-16T05:39:35.332Z,12.93
2018-10-16T05:43:39.306Z,15.10
2018-10-16T05:47:48.092Z,13.98
2018-10-16T05:51:52.050Z,11.50
2018-10-16T05:56:03.139Z,14.30
2018-10-16T06:00:18.982Z,13.93
2018-10-16T06:04:22.966Z,13.77
2018-10-16T06:08:29.152Z,12.87
2018-10-16T06:12:33.873Z,15.07
2018-10-16T06:16:38.182Z,14.73
2018-10-16T06:20:46.639Z,14.53
2018-10-16T06:24:53.632Z,12.23
2018-10-16T06:29:09.335Z,13.87
2018-10-16T06:33:14.085Z,18.53
2018-10-16T06:37:19.529Z,16.50
2018-10-16T06:41:24.478Z,18.27
2018-10-16T06:45:29.348Z,21.40
2018-10-16T06:49:36.061Z,22.07
2018-10-16T06:53:40.980Z,20.70
2018-10-16T06:57:48.890Z,16.63
2018-10-16T07:01:57.670Z,18.70
2018-10-16T07:06:02.743Z,21.00
2018-10-16T07:10:11.070Z,21.07
2018-10-16T07:14:18.021Z,22.57
2018-10-16T07:18:22.404Z,22.23
2018-10-16T07:22:30.879Z,24.90
2018-10-16T07:26:35.489Z,24.40
2018-10-16T07:30:41.904Z,26.83
2018-10-16T07:34:46.420Z,27.07
2018-10-16T07:38:50.436Z,30.23
2018-10-16T07:42:54.809Z,30.50
2018-10-16T07:46:59.974Z,31.47
2018-10-16T07:51:04.227Z,28.93
2018-10-16T07:55:11.493Z,28.10
2018-10-16T07:59:15.554Z,28.70
2018-10-16T08:03:21.920Z,27.32
2018-10-16T08:07:26.004Z,27.47
2018-10-16T08:11:30.185Z,28.57
2018-10-16T08:15:35.254Z,26.97
2018-10-16T08:19:40.433Z,28.73
2018-10-16T08:23:44.619Z,27.23
2018-10-16T08:27:49.602Z,26.00
2018-10-16T08:31:57.240Z,25.87
2018-10-16T08:36:05.293Z,25.77
2018-10-16T08:40:09.624Z,24.50
2018-10-16T08:44:26.150Z,24.50
2018-10-16T08:48:45.706Z,24.70
2018-10-16T08:52:52.546Z,27.70
2018-10-16T08:56:56.652Z,23.67
2018-10-16T09:01:00.846Z,27.90
2018-10-16T09:05:06.859Z,27.27
2018-10-16T09:09:16.071Z,25.13
2018-10-16T09:13:20.874Z,24.07
2018-10-16T09:17:28.440Z,24.63
2018-10-16T09:21:33.421Z,25.97
2018-10-16T09:25:42.323Z,23.33
2018-10-16T09:29:57.374Z,24.77
2018-10-16T09:34:05.012Z,25.60
2018-10-16T09:38:10.775Z,23.27
2018-10-16T09:42:20.503Z,22.40
2018-10-16T09:46:29.456Z,24.00
2018-10-16T09:50:37.304Z,20.50
2018-10-16T09:54:42.234Z,20.87
2018-10-16T09:58:52.035Z,22.03
2018-10-16T10:03:01.747Z,20.13
2018-10-16T10:07:17.780Z,19.23
2018-10-16T10:11:23.021Z,19.13
2018-10-16T10:15:31.194Z,19.30
2018-10-16T10:19:40.853Z,18.90
2018-10-16T10:23:45.541Z,19.07
2018-10-16T10:27:53.433Z,19.33
2018-10-16T10:32:09.851Z,18.53
2018-10-16T10:36:17.891Z,18.93
2018-10-16T10:40:28.119Z,17.70
2018-10-16T10:44:38.053Z,15.63
2018-10-16T10:48:47.424Z,13.77
2018-10-16T10:52:51.758Z,13.83
2018-10-16T10:57:09.079Z,13.27
2018-10-16T11:01:16.735Z,10.63
2018-10-16T11:05:21.605Z,13.23
2018-10-16T11:09:25.892Z,12.23
2018-10-16T11:18:04.732Z,12.23
2018-10-16T11:22:08.752Z,10.17
2018-10-16T11:26:12.775Z,9.97
2018-10-16T11:30:16.827Z,10.90
2018-10-16T11:34:20.929Z,10.08
2018-10-16T11:38:25.215Z,9.80
2018-10-16T11:42:29.341Z,9.50
2018-10-16T11:46:33.397Z,8.93
2018-10-16T11:50:37.356Z,8.30
2018-10-16T11:54:41.402Z,7.97
2018-10-16T11:58:45.387Z,7.77
2018-10-16T12:02:49.517Z,7.87
2018-10-16T12:06:53.419Z,8.53
2018-10-16T12:10:57.358Z,8.63
2018-10-16T12:15:01.234Z,9.20
2018-10-16T12:19:09.985Z,9.23
2018-10-16T12:23:13.805Z,9.23
2018-10-16T12:27:17.699Z,10.40
2018-10-16T12:31:21.630Z,8.87
2018-10-16T12:35:26.918Z,9.67
2018-10-16T12:39:31.187Z,9.80
2018-10-16T12:43:35.833Z,8.63
2018-10-16T12:47:40.981Z,10.03
2018-10-16T12:51:45.594Z,10.70
2018-10-16T12:55:49.505Z,12.33
2018-10-16T12:59:53.374Z,12.53
2018-10-16T13:03:57.297Z,12.73
2018-10-16T13:08:01.250Z,12.27
2018-10-16T13:12:05.101Z,12.57
2018-10-16T13:16:09.106Z,13.07
2018-10-16T13:20:14.141Z,12.77
2018-10-16T13:24:17.972Z,12.77
2018-10-16T13:28:22.139Z,12.87
2018-10-16T13:32:26.037Z,13.40
2018-10-16T13:36:29.909Z,12.80
2018-10-16T13:40:34.334Z,13.33
2018-10-16T13:44:38.344Z,13.57
2018-10-16T13:48:42.450Z,12.70
2018-10-16T13:52:46.674Z,11.60
2018-10-16T13:56:50.586Z,12.90
2018-10-16T14:00:54.338Z,12.63
2018-10-16T14:04:58.210Z,12.60
2018-10-16T14:09:01.917Z,13.37
2018-10-16T14:13:06.274Z,13.07
2018-10-16T14:17:10.629Z,12.57
2018-10-16T14:21:14.445Z,11.80
2018-10-16T14:25:18.229Z,12.23
2018-10-16T14:29:22.057Z,11.70
2018-10-16T14:33:26.284Z,12.60
2018-10-16T14:37:30.126Z,12.70
2018-10-16T14:41:34.265Z,11.77
2018-10-16T14:45:38.139Z,12.40
2018-10-16T14:49:42.604Z,10.03
2018-10-16T14:53:46.439Z,10.37
2018-10-16T14:57:51.254Z,11.53
2018-10-16T15:01:54.980Z,9.30
2018-10-16T15:05:58.901Z,8.40
2018-10-16T15:10:02.818Z,8.90
2018-10-16T15:14:06.837Z,8.20
2018-10-16T15:18:10.627Z,7.70
2018-10-16T15:22:14.667Z,8.97
2018-10-16T15:26:18.413Z,8.97
2018-10-16T15:30:22.214Z,8.57
2018-10-16T15:34:26.053Z,7.47
2018-10-16T15:38:29.851Z,7.30
2018-10-16T15:42:34.517Z,8.30
2018-10-16T15:46:39.076Z,7.93
2018-10-16T15:50:44.156Z,7.73
2018-10-16T15:54:48.014Z,7.90
2018-10-16T15:59:06.552Z,8.13
2018-10-16T16:03:10.377Z,8.37
2018-10-16T16:07:14.185Z,8.53
2018-10-16T16:11:18.013Z,8.63
2018-10-16T16:15:21.924Z,8.30
2018-10-16T16:19:26.281Z,7.20
2018-10-16T16:23:30.095Z,7.80
2018-10-16T16:27:33.894Z,7.30
2018-10-16T16:31:37.737Z,7.00
2018-10-16T16:35:42.649Z,7.73
2018-10-16T16:39:46.812Z,6.63
2018-10-16T16:43:50.822Z,6.67
2018-10-16T16:47:54.462Z,7.20
2018-10-16T16:51:58.240Z,7.97
2018-10-16T16:56:02.132Z,8.57
2018-10-16T17:00:05.896Z,9.00
2018-10-16T17:04:09.730Z,9.67
2018-10-16T17:08:13.523Z,9.63
2018-10-16T17:12:17.324Z,9.07
2018-10-16T17:16:21.158Z,8.77
2018-10-16T17:20:25.036Z,9.67
2018-10-16T17:24:28.961Z,9.40
2018-10-16T17:28:32.769Z,9.90
2018-10-16T17:32:37.141Z,10.20
2018-10-16T17:36:40.958Z,10.43
2018-10-16T17:40:45.086Z,9.50
2018-10-16T17:44:48.910Z,10.57
2018-10-16T17:48:52.804Z,10.87
2018-10-16T17:52:56.752Z,10.87
2018-10-16T17:57:00.778Z,10.73
2018-10-16T18:01:04.527Z,11.83
2018-10-16T18:05:08.349Z,11.17
2018-10-16T18:09:12.946Z,11.53
2018-10-16T18:13:16.615Z,12.33
2018-10-16T18:17:20.529Z,10.93
2018-10-16T18:21:24.313Z,10.13
2018-10-16T18:25:28.108Z,10.50
2018-10-16T18:29:32.237Z,10.73
2018-10-16T18:33:36.378Z,16.87
2018-10-16T18:37:41.206Z,22.17
2018-10-16T18:41:45.348Z,18.90
2018-10-16T18:45:49.141Z,13.72
2018-10-16T18:49:52.965Z,12.17
2018-10-16T18:53:56.793Z,11.10
2018-10-16T18:58:00.649Z,12.23
2018-10-16T19:02:04.540Z,12.67
2018-10-16T19:06:08.625Z,11.10
2018-10-16T19:10:12.658Z,11.93
2018-10-16T19:14:16.640Z,12.13
2018-10-16T19:18:20.448Z,12.13
2018-10-16T19:22:24.254Z,10.90
2018-10-16T19:26:28.083Z,13.23
2018-10-16T19:30:32.285Z,13.13
2018-10-16T19:34:36.169Z,10.90
2018-10-16T19:38:40.113Z,13.33
2018-10-16T19:42:43.955Z,13.13
2018-10-16T19:46:48.206Z,13.27
2018-10-16T19:50:52.098Z,13.20
2018-10-16T19:54:56.382Z,15.00
2018-10-16T19:59:00.254Z,14.30
2018-10-16T20:03:04.097Z,13.60
2018-10-16T20:07:07.852Z,14.37
2018-10-16T20:11:11.711Z,13.33
2018-10-16T20:15:15.494Z,13.20
2018-10-16T20:19:19.538Z,13.23
2018-10-16T20:23:23.348Z,14.47
2018-10-16T20:27:27.157Z,12.63
2018-10-16T20:31:30.950Z,12.47
2018-10-16T20:35:34.718Z,13.23
2018-10-16T20:39:38.803Z,16.80
2018-10-16T20:43:42.583Z,14.47
2018-10-16T20:47:46.377Z,15.40
2018-10-16T20:51:50.214Z,15.40
2018-10-16T20:55:54.038Z,16.33
2018-10-16T20:59:58.087Z,16.70
2018-10-16T21:04:02.838Z,17.33
2018-10-16T21:08:06.686Z,15.87
2018-10-16T21:12:10.569Z,17.47
2018-10-16T21:16:14.342Z,17.10
2018-10-16T21:20:18.162Z,16.87
2018-10-16T21:24:22.110Z,16.13
2018-10-16T21:28:25.925Z,15.33
2018-10-16T21:32:29.793Z,15.83
2018-10-16T21:36:33.881Z,16.40
2018-10-16T21:40:37.757Z,14.83
2018-10-16T21:44:41.799Z,14.53
2018-10-16T21:48:45.601Z,19.20
2018-10-16T21:52:49.385Z,15.83
2018-10-16T21:56:53.494Z,15.87
2018-10-16T22:01:02.727Z,17.23
2018-10-16T22:05:06.455Z,20.30
2018-10-16T22:09:14.665Z,20.57
2018-10-16T22:13:18.537Z,20.97
2018-10-16T22:17:24.273Z,20.13
2018-10-16T22:21:28.068Z,18.87
2018-10-16T22:25:32.149Z,17.80
2018-10-16T22:29:35.976Z,18.20
2018-10-16T22:33:40.693Z,18.67
2018-10-16T22:37:44.678Z,18.63
2018-10-16T22:41:49.088Z,18.87
2018-10-16T22:45:53.152Z,17.47
2018-10-16T22:49:57.282Z,16.75
2018-10-16T22:54:01.472Z,16.33
2018-10-16T22:58:05.749Z,16.85
2018-10-16T23:02:09.821Z,19.77
2018-10-16T23:06:13.903Z,19.12
2018-10-16T23:10:18.089Z,20.47
2018-10-16T23:14:22.197Z,17.95
2018-10-16T23:18:26.470Z,17.33
2018-10-16T23:22:30.602Z,19.62
2018-10-16T23:26:34.971Z,17.40
2018-10-16T23:30:39.129Z,18.13
2018-10-16T23:34:43.505Z,20.67
2018-10-16T23:38:47.808Z,17.90
2018-10-16T23:42:51.798Z,19.15
2018-10-16T23:46:55.801Z,22.63
2018-10-16T23:51:00.148Z,22.27
2018-10-16T23:55:05.809Z,19.13
2018-10-16T23:59:09.868Z,19.07
